createdAt,value
2022-12-04T00:01:15.114Z,16.92
2022-12-04T00:02:47.880Z,16.92
2022-12-04T00:04:20.644Z,15.55
2022-12-04T00:06:03.875Z,17.23
2022-12-04T00:07:36.928Z,16.17
2022-12-04T00:09:11.252Z,16.25
2022-12-04T00:10:44.408Z,16.65
2022-12-04T00:12:17.141Z,16.75
2022-12-04T00:13:50.429Z,16.48
2022-12-04T00:15:25.868Z,16.08
2022-12-04T00:16:59.179Z,15.30
2022-12-04T00:18:30.942Z,15.65
2022-12-04T00:20:04.507Z,16.00
2022-12-04T00:21:37.272Z,15.80
2022-12-04T00:23:09.971Z,15.55
2022-12-04T00:24:44.043Z,15.95
2022-12-04T00:26:18.659Z,16.90
2022-12-04T00:27:51.379Z,16.55
2022-12-04T00:29:24.148Z,15.07
2022-12-04T00:30:57.134Z,15.80
2022-12-04T00:32:30.699Z,15.95
2022-12-04T00:34:07.967Z,16.42
2022-12-04T00:35:40.914Z,16.70
2022-12-04T00:37:13.694Z,15.70
2022-12-04T00:38:46.489Z,15.50
2022-12-04T00:40:20.515Z,15.15
2022-12-04T00:41:53.246Z,15.00
2022-12-04T00:43:25.050Z,15.52
2022-12-04T00:44:57.763Z,14.52
2022-12-04T00:46:30.770Z,13.40
2022-12-04T00:48:03.485Z,14.38
2022-12-04T00:49:36.319Z,14.82
2022-12-04T00:51:10.591Z,14.55
2022-12-04T00:52:43.343Z,14.75
2022-12-04T00:54:16.081Z,14.68
2022-12-04T00:55:50.158Z,14.95
2022-12-04T00:57:22.877Z,14.50
2022-12-04T00:58:58.462Z,14.20
2022-12-04T01:00:31.475Z,13.98
2022-12-04T01:02:04.209Z,13.65
2022-12-04T01:03:37.694Z,14.68
2022-12-04T01:05:10.435Z,13.80
2022-12-04T01:06:43.288Z,13.93
2022-12-04T01:08:15.124Z,14.75
2022-12-04T01:09:47.896Z,14.70
2022-12-04T01:11:23.799Z,14.63
2022-12-04T01:12:56.530Z,14.88
2022-12-04T01:14:29.287Z,14.40
2022-12-04T01:16:02.128Z,14.98
2022-12-04T01:17:34.864Z,14.35
2022-12-04T01:19:10.521Z,14.15
2022-12-04T01:20:49.152Z,14.05
2022-12-04T01:22:21.917Z,14.02
2022-12-04T01:23:54.808Z,15.73
2022-12-04T01:25:26.575Z,15.32
2022-12-04T01:27:00.682Z,15.32
2022-12-04T01:28:32.475Z,15.82
2022-12-04T01:30:06.424Z,14.80
2022-12-04T01:31:39.183Z,14.75
2022-12-04T01:33:11.979Z,14.32
2022-12-04T01:34:43.736Z,13.30
2022-12-04T01:36:18.425Z,13.88
2022-12-04T01:37:51.145Z,13.50
2022-12-04T01:39:23.938Z,13.93
2022-12-04T01:40:57.036Z,15.02
2022-12-04T01:42:31.102Z,14.35
2022-12-04T01:44:08.338Z,13.65
2022-12-04T01:45:43.556Z,13.75
2022-12-04T01:47:16.352Z,13.73
2022-12-04T01:48:54.280Z,14.40
2022-12-04T01:50:26.081Z,14.40
2022-12-04T01:52:03.213Z,14.57
2022-12-04T01:53:37.970Z,12.70
2022-12-04T01:55:10.835Z,13.85
2022-12-04T01:56:47.422Z,12.75
2022-12-04T01:58:27.682Z,13.65
2022-12-04T02:00:02.592Z,13.07
2022-12-04T02:01:41.368Z,13.25
2022-12-04T02:03:15.673Z,13.57
2022-12-04T02:04:49.234Z,13.15
2022-12-04T02:06:21.040Z,12.73
2022-12-04T02:07:57.939Z,13.18
2022-12-04T02:09:31.493Z,13.80
2022-12-04T02:11:12.203Z,13.70
2022-12-04T02:12:50.344Z,12.95
2022-12-04T02:14:31.112Z,13.90
2022-12-04T02:16:15.276Z,13.18
2022-12-04T02:17:54.092Z,13.23
2022-12-04T02:19:47.220Z,12.77
2022-12-04T02:21:27.089Z,13.18
2022-12-04T02:23:29.435Z,13.20
2022-12-04T02:25:09.434Z,13.15
2022-12-04T02:26:49.623Z,13.68
2022-12-04T02:28:25.846Z,12.95
2022-12-04T02:30:03.660Z,12.98
2022-12-04T02:31:41.455Z,13.63
2022-12-04T02:33:20.398Z,12.65
2022-12-04T02:34:59.078Z,13.40
2022-12-04T02:36:37.384Z,12.98
2022-12-04T02:38:17.353Z,12.82
2022-12-04T02:39:55.413Z,12.43
2022-12-04T02:41:36.795Z,13.40
2022-12-04T02:43:15.018Z,13.13
2022-12-04T02:44:55.805Z,12.38
2022-12-04T02:46:33.555Z,13.38
2022-12-04T02:48:08.796Z,12.52
2022-12-04T02:49:46.295Z,12.40
2022-12-04T02:51:21.175Z,13.20
2022-12-04T02:52:56.692Z,13.88
2022-12-04T02:54:35.075Z,13.30
2022-12-04T02:56:11.862Z,12.45
2022-12-04T02:57:50.001Z,13.10
2022-12-04T02:59:27.623Z,12.93
2022-12-04T03:01:17.995Z,13.07
2022-12-04T03:02:55.573Z,12.57
2022-12-04T03:04:30.653Z,14.30
2022-12-04T03:06:07.007Z,12.52
2022-12-04T03:07:44.058Z,12.85
2022-12-04T03:09:20.867Z,12.57
2022-12-04T03:10:56.244Z,14.32
2022-12-04T03:12:35.494Z,13.68
2022-12-04T03:14:13.438Z,14.75
2022-12-04T03:15:48.296Z,12.93
2022-12-04T03:17:28.067Z,13.43
2022-12-04T03:19:06.563Z,13.63
2022-12-04T03:20:40.575Z,13.57
2022-12-04T03:22:17.992Z,12.95
2022-12-04T03:23:57.246Z,13.32
2022-12-04T03:25:36.041Z,14.23
2022-12-04T03:27:13.396Z,14.02
2022-12-04T03:28:55.064Z,15.05
2022-12-04T03:30:35.313Z,15.65
2022-12-04T03:32:14.051Z,13.52
2022-12-04T03:33:48.255Z,14.60
2022-12-04T03:35:24.948Z,14.90
2022-12-04T03:37:04.376Z,14.40
2022-12-04T03:38:42.330Z,14.05
2022-12-04T03:40:22.877Z,14.98
2022-12-04T03:42:00.374Z,14.27
2022-12-04T03:43:37.945Z,14.98
2022-12-04T03:45:16.739Z,13.85
2022-12-04T03:46:55.801Z,13.93
2022-12-04T03:48:34.032Z,14.45
2022-12-04T03:50:11.113Z,13.50
2022-12-04T03:51:49.645Z,14.52
2022-12-04T03:53:30.431Z,14.43
2022-12-04T03:55:07.374Z,15.15
2022-12-04T03:56:44.230Z,15.15
2022-12-04T03:58:21.482Z,14.68
2022-12-04T04:00:07.797Z,14.63
2022-12-04T04:01:45.963Z,15.18
2022-12-04T04:03:23.126Z,14.27
2022-12-04T04:04:58.815Z,15.40
2022-12-04T04:06:37.945Z,14.05
2022-12-04T04:08:27.258Z,15.07
2022-12-04T04:10:06.047Z,14.48
2022-12-04T04:11:43.585Z,14.63
2022-12-04T04:13:39.372Z,14.68
2022-12-04T04:15:32.373Z,14.25
2022-12-04T04:17:27.569Z,14.13
2022-12-04T04:19:19.499Z,13.77
2022-12-04T04:21:15.216Z,13.80
2022-12-04T04:23:09.867Z,13.13
2022-12-04T04:24:46.128Z,13.55
2022-12-04T04:26:19.371Z,14.18
2022-12-04T04:27:53.598Z,14.45
2022-12-04T04:29:27.147Z,14.93
2022-12-04T04:31:11.697Z,14.85
2022-12-04T04:32:49.944Z,14.15
2022-12-04T04:34:27.862Z,14.32
2022-12-04T04:36:07.291Z,14.75
2022-12-04T04:37:50.456Z,15.25
2022-12-04T04:39:32.743Z,13.95
2022-12-04T04:41:11.258Z,14.30
2022-12-04T04:42:50.529Z,14.48
2022-12-04T04:44:29.160Z,14.70
2022-12-04T04:46:07.702Z,15.18
2022-12-04T04:47:47.475Z,15.32
2022-12-04T04:49:24.266Z,14.73
2022-12-04T04:50:57.565Z,14.60
2022-12-04T04:52:31.191Z,15.10
2022-12-04T04:54:07.854Z,14.65
2022-12-04T04:55:43.082Z,15.57
2022-12-04T04:57:27.569Z,14.85
2022-12-04T04:59:00.299Z,14.13
2022-12-04T05:00:33.054Z,14.50
2022-12-04T05:02:06.059Z,14.65
2022-12-04T05:03:39.202Z,15.38
2022-12-04T05:05:12.877Z,14.63
2022-12-04T05:06:45.709Z,14.88
2022-12-04T05:08:17.570Z,16.08
2022-12-04T05:09:50.337Z,14.35
2022-12-04T05:11:24.512Z,15.32
2022-12-04T05:12:56.345Z,14.95
2022-12-04T05:14:29.050Z,14.45
2022-12-04T05:16:03.924Z,14.68
2022-12-04T05:17:35.942Z,14.85
2022-12-04T05:19:26.120Z,14.30
2022-12-04T05:20:59.004Z,14.30
2022-12-04T05:22:32.565Z,14.73
2022-12-04T05:24:05.558Z,14.07
2022-12-04T05:25:38.276Z,15.93
2022-12-04T05:27:12.348Z,15.00
2022-12-04T05:28:45.093Z,15.38
2022-12-04T05:30:18.484Z,14.45
2022-12-04T05:31:51.258Z,14.88
2022-12-04T05:33:24.105Z,15.15
2022-12-04T05:34:56.799Z,15.20
2022-12-04T05:36:29.515Z,15.02
2022-12-04T05:38:02.252Z,15.30
2022-12-04T05:39:36.283Z,14.75
2022-12-04T05:41:09.368Z,14.85
2022-12-04T05:42:43.481Z,15.15
2022-12-04T05:44:15.246Z,14.55
2022-12-04T05:45:48.011Z,14.90
2022-12-04T05:47:21.136Z,15.27
2022-12-04T05:48:52.878Z,15.23
2022-12-04T05:50:25.594Z,15.32
2022-12-04T05:51:57.411Z,15.02
2022-12-04T05:53:30.133Z,15.18
2022-12-04T05:55:02.895Z,15.85
2022-12-04T05:56:34.687Z,14.88
2022-12-04T05:58:08.779Z,15.73
2022-12-04T05:59:41.526Z,15.05
2022-12-04T06:01:17.159Z,14.75
2022-12-04T06:02:49.983Z,15.63
2022-12-04T06:04:21.855Z,14.80
2022-12-04T06:05:54.550Z,14.63
2022-12-04T06:07:27.328Z,15.10
2022-12-04T06:09:01.159Z,15.10
2022-12-04T06:10:33.884Z,14.18
2022-12-04T06:12:06.894Z,14.52
2022-12-04T06:13:41.751Z,15.18
2022-12-04T06:15:14.458Z,14.88
2022-12-04T06:16:48.130Z,15.30
2022-12-04T06:18:21.016Z,15.35
2022-12-04T06:19:55.985Z,15.98
2022-12-04T06:21:31.540Z,15.32
2022-12-04T06:23:04.312Z,15.60
2022-12-04T06:24:37.034Z,14.85
2022-12-04T06:26:09.550Z,15.52
2022-12-04T06:27:43.677Z,14.38
2022-12-04T06:29:18.224Z,15.25
2022-12-04T06:30:50.930Z,14.45
2022-12-04T06:32:23.692Z,14.82
2022-12-04T06:33:58.001Z,14.75
2022-12-04T06:35:30.857Z,16.25
2022-12-04T06:37:03.600Z,15.60
2022-12-04T06:38:36.643Z,15.95
2022-12-04T06:40:10.522Z,15.05
2022-12-04T06:41:43.264Z,15.88
2022-12-04T06:43:15.991Z,15.77
2022-12-04T06:44:50.183Z,15.25
2022-12-04T06:46:24.782Z,15.18
2022-12-04T06:47:57.602Z,14.82
2022-12-04T06:49:29.368Z,16.17
2022-12-04T06:51:03.574Z,16.15
2022-12-04T06:52:36.316Z,16.05
2022-12-04T06:54:10.709Z,15.15
2022-12-04T06:55:48.611Z,16.02
2022-12-04T06:57:21.315Z,15.27
2022-12-04T06:58:56.338Z,14.90
2022-12-04T07:00:30.449Z,16.00
2022-12-04T07:02:03.298Z,14.23
2022-12-04T07:03:36.362Z,14.50
2022-12-04T07:05:09.518Z,15.55
2022-12-04T07:06:42.903Z,15.43
2022-12-04T07:08:16.080Z,16.05
2022-12-04T07:09:48.817Z,16.55
2022-12-04T07:11:22.260Z,15.23
2022-12-04T07:12:54.990Z,15.27
2022-12-04T07:14:27.828Z,15.43
2022-12-04T07:16:02.811Z,14.73
2022-12-04T07:17:35.578Z,15.07
2022-12-04T07:19:08.583Z,14.77
2022-12-04T07:20:41.758Z,14.32
2022-12-04T07:22:14.489Z,15.13
2022-12-04T07:23:49.744Z,15.65
2022-12-04T07:25:22.535Z,14.85
2022-12-04T07:26:55.326Z,14.75
2022-12-04T07:28:28.044Z,15.60
2022-12-04T07:30:00.786Z,14.60
2022-12-04T07:31:34.877Z,15.70
2022-12-04T07:33:07.679Z,14.38
2022-12-04T07:34:40.432Z,15.90
2022-12-04T07:36:15.031Z,14.73
2022-12-04T07:37:47.763Z,15.13
2022-12-04T07:39:20.499Z,15.30
2022-12-04T07:40:53.210Z,15.35
2022-12-04T07:42:25.963Z,15.93
2022-12-04T07:43:58.700Z,14.98
2022-12-04T07:45:31.468Z,15.02
2022-12-04T07:47:05.568Z,15.55
2022-12-04T07:48:38.372Z,14.40
2022-12-04T07:50:11.209Z,14.60
2022-12-04T07:51:43.952Z,14.52
2022-12-04T07:53:16.739Z,14.98
2022-12-04T07:54:49.543Z,14.80
2022-12-04T07:56:22.348Z,14.85
2022-12-04T07:57:55.074Z,14.52
2022-12-04T07:59:27.843Z,15.35
2022-12-04T08:01:06.183Z,15.07
2022-12-04T08:02:40.378Z,15.07
2022-12-04T08:04:13.240Z,14.95
2022-12-04T08:05:46.012Z,15.90
2022-12-04T08:07:19.243Z,16.95
2022-12-04T08:08:52.651Z,15.68
2022-12-04T08:10:25.383Z,15.70
2022-12-04T08:11:58.124Z,14.68
2022-12-04T08:13:30.835Z,15.73
2022-12-04T08:15:05.133Z,15.40
2022-12-04T08:16:37.927Z,14.68
2022-12-04T08:18:12.202Z,15.02
2022-12-04T08:19:44.970Z,14.23
2022-12-04T08:21:20.509Z,15.18
2022-12-04T08:22:53.311Z,17.75
2022-12-04T08:24:26.124Z,15.70
2022-12-04T08:25:59.177Z,14.68
2022-12-04T08:27:31.935Z,17.05
2022-12-04T08:29:05.968Z,18.92
2022-12-04T08:30:38.731Z,17.35
2022-12-04T08:32:11.518Z,18.67
2022-12-04T08:33:47.089Z,20.92
2022-12-04T08:35:19.808Z,17.98
2022-12-04T08:36:52.582Z,17.02
2022-12-04T08:38:25.354Z,16.25
2022-12-04T08:39:59.012Z,17.25
2022-12-04T08:41:31.865Z,15.57
2022-12-04T08:43:04.629Z,15.10
2022-12-04T08:44:37.351Z,15.48
2022-12-04T08:46:12.033Z,17.02
2022-12-04T08:47:47.995Z,16.08
2022-12-04T08:49:26.271Z,15.18
2022-12-04T08:50:59.362Z,16.08
2022-12-04T08:52:32.548Z,19.52
2022-12-04T08:54:07.325Z,17.38
2022-12-04T08:55:39.150Z,15.93
2022-12-04T08:57:11.896Z,15.90
2022-12-04T08:58:43.704Z,15.40
2022-12-04T09:00:17.055Z,16.70
2022-12-04T09:01:51.640Z,17.38
2022-12-04T09:03:30.563Z,16.40
2022-12-04T09:05:05.540Z,14.95
2022-12-04T09:06:38.288Z,15.80
2022-12-04T09:08:11.032Z,15.88
2022-12-04T09:09:48.261Z,15.32
2022-12-04T09:11:23.678Z,15.27
2022-12-04T09:12:56.411Z,16.48
2022-12-04T09:14:29.146Z,15.55
2022-12-04T09:16:04.910Z,16.50
2022-12-04T09:17:37.754Z,15.38
2022-12-04T09:19:10.478Z,15.38
2022-12-04T09:20:44.558Z,16.05
2022-12-04T09:22:17.282Z,16.08
2022-12-04T09:23:50.307Z,16.23
2022-12-04T09:25:23.043Z,16.08
2022-12-04T09:26:55.838Z,16.63
2022-12-04T09:28:28.691Z,16.73
2022-12-04T09:30:01.489Z,16.25
2022-12-04T09:31:34.872Z,14.98
2022-12-04T09:33:07.659Z,15.55
2022-12-04T09:34:40.392Z,15.45
2022-12-04T09:36:16.802Z,16.52
2022-12-04T09:37:49.526Z,15.60
2022-12-04T09:39:22.272Z,15.05
2022-12-04T09:41:06.106Z,15.40
2022-12-04T09:42:48.023Z,14.73
2022-12-04T09:44:24.398Z,14.82
2022-12-04T09:46:01.886Z,14.45
2022-12-04T09:47:37.247Z,13.82
2022-12-04T09:49:15.680Z,12.98
2022-12-04T09:50:51.023Z,13.82
2022-12-04T09:52:44.007Z,13.98
2022-12-04T09:54:19.112Z,14.70
2022-12-04T09:55:56.991Z,14.52
2022-12-04T09:57:37.714Z,14.55
2022-12-04T09:59:16.248Z,15.07
2022-12-04T10:00:51.360Z,14.63
2022-12-04T10:02:37.528Z,15.75
2022-12-04T10:04:11.312Z,14.90
2022-12-04T10:05:53.552Z,16.67
2022-12-04T10:07:33.190Z,17.13
2022-12-04T10:09:13.261Z,16.88
2022-12-04T10:10:56.530Z,17.15
2022-12-04T10:12:37.831Z,20.20
2022-12-04T10:14:22.879Z,17.35
2022-12-04T10:16:04.504Z,19.58
2022-12-04T10:17:56.967Z,14.38
2022-12-04T10:19:38.727Z,19.30
2022-12-04T10:21:31.153Z,15.15
2022-12-04T10:23:16.380Z,16.70
2022-12-04T10:24:53.025Z,14.70
2022-12-04T10:26:30.758Z,17.00
2022-12-04T10:28:21.664Z,21.15
2022-12-04T10:29:59.851Z,18.20
2022-12-04T10:31:34.975Z,18.23
2022-12-04T10:33:20.686Z,17.40
2022-12-04T10:34:55.627Z,16.70
2022-12-04T10:36:32.254Z,17.08
2022-12-04T10:38:12.224Z,17.27
2022-12-04T10:39:50.567Z,18.33
2022-12-04T10:41:27.423Z,18.75
2022-12-04T10:43:06.775Z,20.45
2022-12-04T10:44:40.122Z,26.65
2022-12-04T10:46:16.479Z,35.97
2022-12-04T10:47:51.622Z,23.98
2022-12-04T10:49:27.858Z,17.15
2022-12-04T10:51:00.601Z,16.58
2022-12-04T10:52:33.341Z,16.52
2022-12-04T10:54:15.815Z,18.65
2022-12-04T10:55:48.826Z,16.05
2022-12-04T10:57:21.598Z,18.45
2022-12-04T10:58:59.380Z,19.42
2022-12-04T11:00:34.260Z,18.45
2022-12-04T11:02:17.990Z,17.58
2022-12-04T11:03:58.468Z,17.25
2022-12-04T11:05:34.129Z,16.05
2022-12-04T11:07:10.348Z,21.88
2022-12-04T11:08:44.793Z,19.27
2022-12-04T11:10:25.073Z,16.98
2022-12-04T11:12:07.688Z,17.30
2022-12-04T11:13:41.888Z,16.52
2022-12-04T11:15:16.248Z,15.98
2022-12-04T11:16:51.328Z,16.88
2022-12-04T11:18:26.741Z,17.85
2022-12-04T11:20:05.035Z,19.52
2022-12-04T11:21:39.690Z,21.40
2022-12-04T11:23:17.511Z,21.00
2022-12-04T11:24:54.067Z,16.42
2022-12-04T11:26:34.503Z,16.08
2022-12-04T11:28:07.312Z,17.40
2022-12-04T11:29:44.732Z,17.20
2022-12-04T11:31:20.355Z,16.55
2022-12-04T11:32:54.651Z,16.17
2022-12-04T11:34:35.513Z,17.17
2022-12-04T11:36:20.423Z,15.70
2022-12-04T11:37:56.103Z,15.02
2022-12-04T11:39:33.635Z,15.90
2022-12-04T11:41:06.665Z,16.23
2022-12-04T11:42:40.734Z,16.52
2022-12-04T11:44:26.353Z,15.23
2022-12-04T11:46:00.784Z,15.55
2022-12-04T11:47:34.539Z,15.20
2022-12-04T11:49:07.263Z,16.73
2022-12-04T11:50:48.589Z,16.70
2022-12-04T11:52:31.567Z,17.17
2022-12-04T11:54:12.090Z,17.05
2022-12-04T11:56:02.790Z,16.95
2022-12-04T11:57:43.627Z,16.88
2022-12-04T11:59:35.331Z,15.70
2022-12-04T12:01:19.043Z,15.55
2022-12-04T12:03:11.387Z,16.17
2022-12-04T12:05:01.486Z,15.15
2022-12-04T12:06:37.427Z,15.55
2022-12-04T12:08:18.912Z,15.05
2022-12-04T12:10:00.389Z,14.57
2022-12-04T12:11:38.436Z,14.85
2022-12-04T12:13:23.454Z,14.82
2022-12-04T12:15:09.497Z,14.90
2022-12-04T12:16:57.215Z,13.57
2022-12-04T12:18:46.275Z,14.95
2022-12-04T12:20:25.181Z,15.20
2022-12-04T12:22:05.684Z,16.10
2022-12-04T12:23:55.931Z,15.90
2022-12-04T12:25:33.866Z,15.75
2022-12-04T12:27:28.837Z,16.00
2022-12-04T12:29:13.528Z,15.43
2022-12-04T12:31:05.828Z,15.13
2022-12-04T12:32:53.824Z,15.32
2022-12-04T12:34:36.672Z,16.13
2022-12-04T12:36:12.572Z,16.58
2022-12-04T12:37:48.916Z,16.50
2022-12-04T12:39:25.813Z,17.13
2022-12-04T12:41:03.245Z,16.90
2022-12-04T12:42:41.220Z,15.57
2022-12-04T12:44:20.792Z,17.15
2022-12-04T12:45:59.264Z,18.02
2022-12-04T12:47:38.769Z,21.08
2022-12-04T12:49:17.589Z,23.60
2022-12-04T12:51:14.946Z,30.25
2022-12-04T12:52:54.915Z,21.15
2022-12-04T12:54:37.703Z,22.52
2022-12-04T12:56:13.254Z,23.15
2022-12-04T12:57:50.710Z,20.13
2022-12-04T12:59:28.535Z,22.65
2022-12-04T13:01:07.281Z,22.08
2022-12-04T13:02:45.737Z,21.83
2022-12-04T13:04:24.153Z,19.60
2022-12-04T13:06:01.941Z,17.88
2022-12-04T13:07:46.465Z,19.75
2022-12-04T13:09:25.369Z,18.58
2022-12-04T13:11:04.743Z,19.48
2022-12-04T13:12:46.384Z,19.13
2022-12-04T13:14:19.127Z,17.70
2022-12-04T13:15:58.466Z,19.27
2022-12-04T13:17:34.434Z,20.35
2022-12-04T13:19:13.308Z,20.95
2022-12-04T13:20:53.322Z,18.00
2022-12-04T13:22:32.629Z,18.77
2022-12-04T13:24:38.231Z,18.05
2022-12-04T13:26:22.283Z,18.17
2022-12-04T13:28:06.462Z,18.63
2022-12-04T13:29:50.325Z,18.58
2022-12-04T13:31:33.224Z,23.73
2022-12-04T13:33:25.383Z,21.88
2022-12-04T13:35:05.081Z,22.35
2022-12-04T13:36:57.066Z,19.88
2022-12-04T13:38:41.478Z,21.38
2022-12-04T13:40:39.610Z,22.25
2022-12-04T13:42:23.064Z,20.27
2022-12-04T13:43:57.460Z,19.63
2022-12-04T13:45:34.591Z,19.67
2022-12-04T13:47:13.325Z,18.08
2022-12-04T13:48:46.166Z,17.48
2022-12-04T13:50:31.471Z,18.38
2022-12-04T13:52:07.123Z,17.42
2022-12-04T13:53:40.358Z,17.02
2022-12-04T13:55:29.140Z,17.10
2022-12-04T13:57:21.928Z,16.73
2022-12-04T13:59:01.873Z,15.43
2022-12-04T14:00:36.403Z,17.02
2022-12-04T14:02:29.756Z,16.38
2022-12-04T14:04:03.191Z,17.58
2022-12-04T14:05:43.628Z,17.58
2022-12-04T14:07:27.496Z,17.73
2022-12-04T14:09:03.440Z,17.63
2022-12-04T14:10:39.375Z,16.90
2022-12-04T14:12:15.438Z,17.00
2022-12-04T14:13:51.597Z,16.98
2022-12-04T14:15:26.652Z,16.58
2022-12-04T14:17:01.161Z,15.98
2022-12-04T14:18:35.423Z,17.77
2022-12-04T14:20:24.492Z,17.33
2022-12-04T14:21:57.343Z,17.13
2022-12-04T14:23:37.643Z,17.23
2022-12-04T14:25:26.028Z,17.48
2022-12-04T14:27:14.577Z,17.77
2022-12-04T14:28:48.771Z,17.33
2022-12-04T14:30:24.879Z,16.98
2022-12-04T14:32:01.243Z,17.80
2022-12-04T14:33:40.692Z,17.63
2022-12-04T14:35:15.250Z,21.38
2022-12-04T14:36:49.443Z,17.90
2022-12-04T14:38:23.854Z,17.48
2022-12-04T14:39:58.462Z,16.38
2022-12-04T14:41:31.344Z,19.92
2022-12-04T14:43:05.528Z,17.90
2022-12-04T14:44:39.227Z,15.82
2022-12-04T14:46:18.817Z,16.30
2022-12-04T14:48:06.739Z,16.92
2022-12-04T14:49:54.249Z,15.05
2022-12-04T14:51:33.963Z,14.68
2022-12-04T14:53:16.067Z,15.48
2022-12-04T14:54:57.611Z,16.52
2022-12-04T14:56:53.413Z,15.55
2022-12-04T14:58:34.470Z,15.60
2022-12-04T15:00:16.846Z,15.00
2022-12-04T15:01:51.634Z,14.88
2022-12-04T15:03:25.383Z,14.77
2022-12-04T15:05:00.048Z,15.85
2022-12-04T15:06:34.632Z,14.75
2022-12-04T15:08:07.669Z,14.55
2022-12-04T15:10:08.216Z,13.98
2022-12-04T15:12:04.099Z,13.98
2022-12-04T15:13:38.747Z,14.88
2022-12-04T15:15:19.298Z,15.35
2022-12-04T15:17:02.575Z,14.23
2022-12-04T15:18:39.418Z,16.70
2022-12-04T15:20:18.024Z,15.73
2022-12-04T15:21:50.795Z,14.40
2022-12-04T15:23:28.742Z,14.25
2022-12-04T15:25:01.821Z,14.00
2022-12-04T15:26:34.764Z,14.88
2022-12-04T15:28:12.590Z,14.45
2022-12-04T15:29:48.255Z,15.55
2022-12-04T15:31:24.164Z,14.35
2022-12-04T15:32:57.478Z,14.80
2022-12-04T15:34:37.507Z,14.73
2022-12-04T15:36:18.890Z,15.07
2022-12-04T15:37:51.987Z,14.85
2022-12-04T15:39:27.884Z,14.70
2022-12-04T15:41:02.089Z,15.23
2022-12-04T15:42:34.911Z,15.55
2022-12-04T15:44:24.266Z,16.50
2022-12-04T15:45:58.200Z,15.90
2022-12-04T15:47:33.736Z,16.08
2022-12-04T15:49:18.366Z,16.38
2022-12-04T15:50:57.732Z,17.42
2022-12-04T15:52:31.808Z,16.27
2022-12-04T15:54:04.992Z,16.65
2022-12-04T15:55:41.080Z,17.48
2022-12-04T15:57:26.219Z,17.58
2022-12-04T15:59:01.728Z,16.88
2022-12-04T16:00:38.373Z,17.33
2022-12-04T16:02:25.838Z,17.73
2022-12-04T16:03:58.668Z,17.23
2022-12-04T16:05:35.363Z,17.98
2022-12-04T16:07:22.295Z,17.90
2022-12-04T16:08:58.079Z,16.85
2022-12-04T16:10:33.795Z,16.73
2022-12-04T16:12:19.529Z,16.65
2022-12-04T16:14:15.783Z,15.73
2022-12-04T16:15:48.627Z,17.08
2022-12-04T16:17:21.792Z,16.27
2022-12-04T16:18:54.654Z,17.10
2022-12-04T16:20:27.420Z,16.80
2022-12-04T16:22:00.631Z,17.90
2022-12-04T16:23:33.670Z,19.58
2022-12-04T16:25:08.641Z,18.10
2022-12-04T16:26:41.971Z,21.33
2022-12-04T16:28:14.758Z,18.73
2022-12-04T16:29:47.846Z,18.67
2022-12-04T16:31:23.765Z,18.63
2022-12-04T16:32:56.590Z,18.20
2022-12-04T16:34:29.291Z,18.77
2022-12-04T16:36:02.076Z,19.70
2022-12-04T16:37:34.811Z,19.25
2022-12-04T16:39:07.539Z,19.05
2022-12-04T16:40:41.580Z,18.60
2022-12-04T16:42:17.122Z,18.60
2022-12-04T16:43:56.188Z,17.55
2022-12-04T16:45:33.335Z,17.73
2022-12-04T16:47:06.740Z,17.45
2022-12-04T16:48:39.528Z,17.80
2022-12-04T16:50:12.338Z,18.05
2022-12-04T16:51:49.467Z,17.10
2022-12-04T16:53:23.696Z,17.15
2022-12-04T16:55:00.478Z,17.95
2022-12-04T16:56:37.243Z,17.98
2022-12-04T16:58:09.975Z,18.00
2022-12-04T16:59:42.692Z,17.65
2022-12-04T17:01:22.634Z,17.05
2022-12-04T17:02:55.790Z,18.63
2022-12-04T17:04:28.823Z,19.05
2022-12-04T17:06:02.547Z,18.77
2022-12-04T17:07:35.315Z,23.38
2022-12-04T17:09:08.459Z,20.02
2022-12-04T17:10:41.188Z,22.83
2022-12-04T17:12:15.265Z,19.73
2022-12-04T17:13:47.982Z,18.52
2022-12-04T17:15:20.872Z,18.88
2022-12-04T17:16:54.888Z,18.90
2022-12-04T17:18:27.702Z,18.35
2022-12-04T17:20:00.438Z,18.15
2022-12-04T17:21:34.153Z,18.90
2022-12-04T17:23:06.902Z,17.50
2022-12-04T17:24:47.169Z,17.63
2022-12-04T17:26:21.956Z,18.20
2022-12-04T17:27:56.019Z,18.92
2022-12-04T17:29:28.732Z,18.45
2022-12-04T17:31:02.426Z,18.02
2022-12-04T17:32:35.860Z,18.25
2022-12-04T17:34:08.559Z,17.35
2022-12-04T17:35:42.319Z,20.05
2022-12-04T17:37:15.128Z,19.05
2022-12-04T17:38:47.931Z,21.40
2022-12-04T17:40:20.823Z,19.80
2022-12-04T17:41:53.521Z,18.90
2022-12-04T17:43:29.414Z,19.25
2022-12-04T17:45:02.165Z,19.88
2022-12-04T17:46:34.974Z,19.98
2022-12-04T17:48:07.952Z,17.70
2022-12-04T17:49:40.654Z,18.83
2022-12-04T17:51:15.034Z,18.92
2022-12-04T17:52:48.216Z,18.50
2022-12-04T17:54:20.939Z,19.30
2022-12-04T17:55:53.657Z,18.25
2022-12-04T17:57:26.396Z,20.00
2022-12-04T17:59:00.475Z,20.92
2022-12-04T18:00:33.241Z,19.85
2022-12-04T18:02:05.995Z,20.95
2022-12-04T18:03:39.582Z,20.92
2022-12-04T18:05:12.298Z,21.25
2022-12-04T18:06:46.001Z,23.85
2022-12-04T18:08:18.824Z,24.17
2022-12-04T18:09:51.613Z,32.45
2022-12-04T18:11:27.982Z,35.60
2022-12-04T18:13:00.689Z,32.60
2022-12-04T18:14:35.464Z,26.88
2022-12-04T18:16:10.997Z,26.02
2022-12-04T18:17:43.753Z,26.70
2022-12-04T18:19:16.536Z,30.45
2022-12-04T18:20:59.941Z,29.33
2022-12-04T18:22:32.663Z,27.05
2022-12-04T18:24:06.948Z,24.58
2022-12-04T18:25:39.655Z,29.27
2022-12-04T18:27:12.372Z,27.45
2022-12-04T18:28:46.362Z,27.42
2022-12-04T18:30:20.646Z,21.73
2022-12-04T18:31:53.481Z,21.42
2022-12-04T18:33:26.268Z,22.90
2022-12-04T18:34:58.994Z,25.63
2022-12-04T18:36:33.600Z,25.05
2022-12-04T18:38:06.367Z,20.63
2022-12-04T18:39:39.103Z,23.15
2022-12-04T18:41:14.343Z,28.33
2022-12-04T18:42:47.083Z,21.02
2022-12-04T18:44:19.797Z,20.38
2022-12-04T18:46:06.850Z,19.35
2022-12-04T18:47:40.245Z,18.50
2022-12-04T18:49:13.061Z,18.20
2022-12-04T18:50:45.780Z,18.52
2022-12-04T18:52:18.544Z,18.02
2022-12-04T18:53:52.754Z,18.45
2022-12-04T18:55:25.482Z,18.88
2022-12-04T18:56:58.202Z,18.95
2022-12-04T18:58:30.942Z,19.13
2022-12-04T19:00:03.759Z,19.80
2022-12-04T19:01:38.876Z,19.98
2022-12-04T19:03:11.869Z,18.80
2022-12-04T19:04:44.831Z,19.98
2022-12-04T19:06:17.606Z,20.65
2022-12-04T19:07:50.883Z,19.77
2022-12-04T19:09:47.125Z,19.65
2022-12-04T19:11:18.246Z,19.67
2022-12-04T19:12:52.470Z,19.23
2022-12-04T19:14:25.191Z,19.60
2022-12-04T19:15:57.931Z,19.17
2022-12-04T19:17:32.091Z,20.38
2022-12-04T19:19:05.267Z,21.23
2022-12-04T19:20:40.462Z,20.27
2022-12-04T19:22:13.456Z,21.17
2022-12-04T19:23:50.873Z,20.75
2022-12-04T19:25:23.616Z,21.15
2022-12-04T19:26:56.348Z,21.77
2022-12-04T19:28:29.134Z,22.13
2022-12-04T19:30:01.855Z,21.88
2022-12-04T19:31:36.193Z,21.35
2022-12-04T19:33:10.334Z,21.20
2022-12-04T19:34:43.648Z,20.33
2022-12-04T19:36:16.911Z,20.77
2022-12-04T19:37:52.981Z,20.08
2022-12-04T19:39:25.860Z,20.83
2022-12-04T19:41:10.290Z,21.48
2022-12-04T19:42:43.018Z,21.75
2022-12-04T19:44:47.240Z,23.73
2022-12-04T19:46:10.549Z,21.77
2022-12-04T19:47:43.295Z,22.45
2022-12-04T19:49:17.468Z,23.27
2022-12-04T19:50:50.424Z,22.92
2022-12-04T19:52:23.150Z,24.35
2022-12-04T19:53:56.524Z,21.70
2022-12-04T19:55:29.231Z,22.67
2022-12-04T19:57:02.031Z,20.98
2022-12-04T19:58:35.711Z,21.13
2022-12-04T20:00:09.972Z,20.77
2022-12-04T20:01:42.761Z,20.92
2022-12-04T20:03:15.522Z,21.65
2022-12-04T20:04:49.703Z,19.63
2022-12-04T20:06:24.418Z,20.75
2022-12-04T20:09:29.928Z,20.83
2022-12-04T20:11:03.682Z,20.48
2022-12-04T20:12:36.402Z,19.92
2022-12-04T20:14:10.010Z,19.95
2022-12-04T20:15:43.096Z,24.13
2022-12-04T20:17:15.839Z,22.85
2022-12-04T20:18:48.757Z,21.70
2022-12-04T20:20:22.958Z,23.65
2022-12-04T20:21:59.280Z,22.42
2022-12-04T20:23:32.394Z,21.35
2022-12-04T20:25:05.681Z,20.90
2022-12-04T20:26:40.228Z,21.13
2022-12-04T20:28:14.665Z,20.60
2022-12-04T20:29:47.490Z,19.88
2022-12-04T20:31:22.652Z,20.67
2022-12-04T20:32:56.221Z,19.60
2022-12-04T20:34:28.973Z,21.33
2022-12-04T20:36:03.036Z,21.55
2022-12-04T20:37:36.311Z,20.92
2022-12-04T20:39:10.767Z,22.02
2022-12-04T20:40:43.502Z,20.85
2022-12-04T20:42:16.587Z,20.75
2022-12-04T20:43:49.672Z,21.15